ADDS METAR Data INFO
IDs: Format: Raw Decoded Include TAF

Data at: 2054 UTC 24 Jun 2017

KJWY 242035Z AUTO 08004KT 10SM BKN016 OVC024 24/21 A3012 RMK AO2 T02430212
KJWY 242015Z AUTO 06004KT 10SM BKN014 BKN021 OVC026 25/21 A3012 RMK AO2 T02450214
KJWY 241955Z AUTO 08007KT 10SM BKN014 OVC023 25/21 A3011 RMK AO2 T02450212
KJWY 241935Z AUTO 09006KT 10SM OVC015 24/21 A3009 RMK AO2 T02400208
KJWY 241915Z AUTO 08010G17KT 10SM BKN015 25/21 A3010 RMK AO2 T02490214
KJWY 241855Z AUTO 06009G14KT 10SM CLR 26/21 A3009 RMK AO2 T02560210
KJWY 241835Z AUTO 04006KT 10SM CLR 25/21 A3008 RMK AO2 T02500210
KJWY 241815Z AUTO 30003KT 10SM CLR 23/21 A3009 RMK AO2 T02310211
KJWY 241755Z AUTO 29005KT 10SM CLR 22/21 A3010 RMK AO2 60009 T02230209 10225 20208
KJWY 241735Z AUTO 29004KT 10SM CLR 22/21 A3012 RMK AO2 T02230207
KJWY 241715Z AUTO 25004KT 10SM CLR 22/21 A3013 RMK AO2 T02210207
KJWY 241655Z AUTO 24003KT 10SM -DZ SCT070 SCT085 SCT100 22/21 A3015 RMK AO2 T02210206
KJWY 241635Z AUTO 00000KT 10SM -RA SCT050 BKN070 BKN095 22/21 A3016 RMK AO2 T02160206
KJWY 241615Z AUTO 31004KT 10SM -RA SCT050 SCT070 SCT090 22/21 A3016 RMK AO2 T02160205
KJWY 241555Z AUTO 33006KT 10SM -RA SCT045 SCT065 BKN085 22/20 A3016 RMK AO2 T02170201
KJWY 241535Z AUTO 35010KT 10SM -RA SCT038 SCT050 BKN060 21/21 A3017 RMK AO2 T02140207
KJWY 241515Z AUTO 36009KT 10SM -RA SCT005 SCT034 BKN044 22/22 A3018 RMK AO2 T02150215
KJWY 241455Z AUTO 01011G16KT 10SM -RA BKN005 BKN020 OVC070 22/22 A3019 RMK AO2 P0005 60009 T02150215
KJWY 241435Z AUTO 36006KT 10SM -RA SCT007 BKN026 OVC085 22/22 A3019 RMK AO2 P0004 T02150215
KJWY 241415Z AUTO 35004KT 7SM RA SCT007 BKN023 OVC028 22/22 A3018 RMK AO2 P0003 T02150215
KJWY 241355Z AUTO 31003KT 7SM RA SCT009 BKN021 BKN085 22/22 A3016 RMK AO2 P0004 T02170217
KJWY 241335Z AUTO 00000KT 10SM -RA SCT008 SCT013 BKN019 22/22 A3014 RMK AO2 P0001 T02160216
KJWY 241315Z AUTO 32005KT 10SM OVC012 22/22 A3015 RMK AO2 T02150215
KJWY 241255Z AUTO 30004KT 10SM OVC010 21/21 A3014 RMK AO2 T02120212
KJWY 241235Z AUTO 30006KT 10SM BKN008 OVC060 21/21 A3012 RMK AO2 T02110211
KJWY 241215Z AUTO 27003KT 10SM SCT010 21/21 A3011 RMK AO2 T02100210
KJWY 241155Z AUTO 05003KT 7SM CLR 21/21 A3007 RMK AO2 60074 70074 T02080208 10288 20205
KJWY 241135Z AUTO 00000KT 10SM -RA CLR 21/21 A3004 RMK AO2 T02100210
KJWY 241115Z AUTO 19006KT 10SM -RA SCT014 SCT060 SCT080 21/21 A3002 RMK AO2 T02100210
KJWY 241055Z AUTO 17006KT 7SM -RA SCT012 SCT055 OVC110 21/21 A3002 RMK AO2 P0007 T02090209
KJWY 241035Z AUTO 13003KT 7SM RA BKN012 BKN047 OVC120 21/21 A3001 RMK AO2 P0004 T02050205
KJWY 241015Z AUTO 00000KT 7SM RA BKN110 21/21 A3001 RMK AO2 P0002 T02050205
KJWY 240955Z AUTO 00000KT 4SM RA SCT005 SCT055 OVC110 21/21 A3001 RMK AO2 P0008 T02060206
KJWY 240935Z AUTO 36004KT 10SM RA SCT005 SCT034 BKN120 21/21 A3001 RMK AO2 P0004 T02070207
KJWY 240915Z AUTO 10004KT 10SM -RA SCT120 21/21 A2996 RMK AO2 P0002 T02060206
KJWY 240855Z AUTO 15006KT 10SM -RA SCT100 21/21 A2998 RMK AO2 P0001 60058 T02060206
KJWY 240835Z AUTO 15011G16KT 10SM -RA SCT110 21/21 A2995 RMK AO2 P0001 T02130213
KJWY 240815Z AUTO 21007KT 10SM -RA SCT095 BKN120 22/22 A2997 RMK AO2 P0001 T02160216
KJWY 240755Z AUTO 32003KT 7SM RA SCT046 BKN070 OVC110 22/22 A3000 RMK AO2 P0046 T02150215
KJWY 240735Z AUTO 00000KT 4SM +RA SCT039 BKN047 OVC065 22/22 A3002 RMK AO2 P0036 T02150215
KJWY 240715Z AUTO 35008KT 3SM +RA SCT007 BKN038 OVC044 22/22 A3000 RMK AO2 P0015 T02150215
KJWY 240655Z AUTO 03010G20KT 4SM +RA SCT006 BKN012 OVC029 22/21 A3002 RMK AO2 P0010 T02190210
KJWY 240635Z AUTO 05022G27KT 10SM SCT020 BKN029 OVC090 25/20 A2998 RMK AO2 T02520197
KJWY 240615Z AUTO 11007KT 090V150 10SM SCT047 BKN060 BKN070 29/25 A2994 RMK AO2 T02870250
KJWY 240555Z AUTO 10003KT 10SM SCT045 SCT065 28/25 A2995 RMK AO2 T02830251 10346 20283 403570231
KJWY 240535Z AUTO 12003KT 10SM SCT045 29/25 A2994 RMK AO2 T02860250
KJWY 240515Z AUTO 09003KT 10SM SCT046 SCT055 29/25 A2993 RMK AO2 T02900250
KJWY 240455Z AUTO 11004KT 10SM BKN046 BKN055 30/25 A2994 RMK AO2 T02950248
KJWY 240435Z AUTO 00000KT 10SM CLR 29/25 A2993 RMK AO2 T02940248
KJWY 240415Z AUTO 14004KT 10SM CLR 30/25 A2991 RMK AO2 T02950247
KJWY 240355Z AUTO 15004KT 10SM CLR 30/25 A2990 RMK AO2 T02980247
KJWY 240335Z AUTO 15004KT 10SM CLR 30/25 A2989 RMK AO2 T02970250
KJWY 240315Z AUTO 14003KT 10SM CLR 30/25 A2989 RMK AO2 T02990249
KJWY 240255Z AUTO 00000KT 10SM CLR 30/25 A2988 RMK AO2 T02970248
KJWY 240235Z AUTO 09003KT 10SM SCT055 30/25 A2987 RMK AO2 T03000247
KJWY 240215Z AUTO 08003KT 10SM SCT055 30/25 A2987 RMK AO2 T03010248
KJWY 240155Z AUTO 00000KT 10SM SCT055 31/25 A2986 RMK AO2 T03070247
KJWY 240135Z AUTO 00000KT 10SM CLR 32/25 A2985 RMK AO2 T03170247
KJWY 240115Z AUTO 12004KT 10SM SCT047 32/25 A2983 RMK AO2 T03200246
KJWY 240055Z AUTO 00000KT 10SM CLR 33/25 A2982 RMK AO2 T03270248
KJWY 240035Z AUTO 00000KT 10SM CLR 34/24 A2981 RMK AO2 T03360244
KJWY 240015Z AUTO 00000KT 10SM CLR 34/24 A2981 RMK AO2 T03420243
KJWY 232355Z AUTO 11003KT 10SM CLR 35/23 A2980 RMK AO2 T03460234 10357 20330
KJWY 232335Z AUTO 00000KT 10SM CLR 35/23 A2980 RMK AO2 T03500232
KJWY 232315Z AUTO 00000KT 10SM CLR 35/23 A2980 RMK AO2 T03500231
KJWY 232255Z AUTO 10003KT 10SM CLR 35/24 A2980 RMK AO2 T03510238
KJWY 232235Z AUTO 09003KT 10SM CLR 35/24 A2981 RMK AO2 T03530240
KJWY 232215Z AUTO 00000KT 10SM CLR 36/24 A2981 RMK AO2 T03560239
KJWY 232155Z AUTO 18005KT 10SM CLR 35/24 A2982 RMK AO2 T03520240
KJWY 232135Z AUTO 12003KT 10SM CLR 35/24 A2982 RMK AO2 T03530242
KJWY 232115Z AUTO 18004KT 10SM CLR 36/24 A2981 RMK AO2 T03560238
KJWY 232055Z AUTO 15003KT 10SM CLR 35/23 A2981 RMK AO2 T03530234
KJWY 232035Z AUTO 16006KT 10SM CLR 35/24 A2982 RMK AO2 T03530238
KJWY 232015Z AUTO 18003KT 10SM CLR 35/23 A2982 RMK AO2 T03470234
KJWY 231955Z AUTO 19006KT 10SM CLR 34/23 A2982 RMK AO2 T03440234
KJWY 231935Z AUTO 18004KT 10SM CLR 35/24 A2983 RMK AO2 T03480240
KJWY 231915Z AUTO 17004KT 10SM CLR 34/24 A2983 RMK AO2 T03430238
KJWY 231855Z AUTO 16005KT 10SM CLR 34/24 A2983 RMK AO2 T03400239
KJWY 231835Z AUTO 17004KT 10SM CLR 33/24 A2982 RMK AO2 T03330235
KJWY 231815Z AUTO 19003KT 10SM CLR 33/24 A2983 RMK AO2 T03330237
KJWY 231755Z AUTO 15006KT 10SM CLR 33/24 A2982 RMK AO2 T03300237 10330 20235
KJWY 231735Z AUTO 18009KT 10SM CLR 33/24 A2982 RMK AO2 T03280235
KJWY 231715Z AUTO 16006KT 10SM CLR 32/23 A2982 RMK AO2 T03200234
KJWY 231655Z AUTO 17007KT 10SM CLR 32/24 A2982 RMK AO2 T03190238
KJWY 231635Z AUTO 19008KT 10SM CLR 31/24 A2982 RMK AO2 T03110236
KJWY 231615Z AUTO 19006KT 10SM CLR 31/24 A2982 RMK AO2 T03090237
KJWY 231555Z AUTO 21007KT 10SM CLR 30/24 A2982 RMK AO2 T03040236
KJWY 231535Z AUTO 20009KT 10SM CLR 30/24 A2983 RMK AO2 T03010236
KJWY 231515Z AUTO 20010KT 10SM CLR 30/24 A2981 RMK AO2 T02950237
KJWY 231455Z AUTO 20010KT 10SM CLR 29/24 A2981 RMK AO2 T02870243
KJWY 231435Z AUTO 19011KT 10SM CLR 28/25 A2981 RMK AO2 T02810247
KJWY 231415Z AUTO 18010KT 10SM SCT009 27/25 A2981 RMK AO2 T02690250
KJWY 231355Z AUTO 18007KT 7SM BKN007 26/25 A2981 RMK AO2 T02610252
KJWY 231335Z AUTO 17006KT 7SM OVC007 25/25 A2980 RMK AO2 T02530253
KJWY 231315Z AUTO 17006KT 5SM BR OVC005 25/25 A2980 RMK AO2 T02470247
KJWY 231255Z AUTO 17006KT 5SM BR OVC005 24/24 A2979 RMK AO2 T02430243
KJWY 231235Z AUTO 16005KT 5SM BR BKN005 24/24 A2978 RMK AO2 T02400240
KJWY 231215Z AUTO 16005KT 4SM BR SCT005 24/24 A2976 RMK AO2 T02370237
KJWY 231155Z AUTO 16004KT 4SM BR BKN005 24/24 A2976 RMK AO2 T02350235 10243 20231
KJWY 231135Z AUTO 17003KT 4SM BR CLR 24/24 A2976 RMK AO2 T02350235
KJWY 231115Z AUTO 16004KT 7SM CLR 24/24 A2976 RMK AO2 T02350235
KJWY 231055Z AUTO 17005KT 7SM CLR 24/24 A2975 RMK AO2 T02360236
KJWY 231035Z AUTO 16005KT 7SM CLR 24/24 A2974 RMK AO2 T02360236
KJWY 231015Z AUTO 15003KT 7SM CLR 24/24 A2975 RMK AO2 T02370237
KJWY 230955Z AUTO 16004KT 10SM CLR 24/24 A2975 RMK AO2 T02370237
KJWY 230935Z AUTO 16004KT 10SM CLR 24/24 A2974 RMK AO2 T02370237
KJWY 230915Z AUTO 17004KT 10SM CLR 23/23 A2974 RMK AO2 T02340234
KJWY 230855Z AUTO 17003KT 10SM CLR 23/23 A2974 RMK AO2 T02330233


Page loaded:  20:54 UTC  |   01:54 PM Pacific  |   02:54 PM Mountain  |   03:54 PM Central  |   04:54 PM Eastern

 

ADVISORIES

FORECASTS

FORECASTS

OBSERVATIONS

USER TOOLS

ABOUT US